Time;durP1;ratioP1;P1;durP2;ratioP2;P2;SDS_P1;SDS_P2;PMS_P1;PMS_P2;Temp;Humidity;BMP_temperature;BMP_pressure;BME280_temperature;BME280_humidity;BME280_pressure;Samples;Min_cycle;Max_cycle;Signal;HPM_P1;HPM_P2
2023/10/11 00:02:23;;;;;;;1999.90;999.90;;;;;;;12.72;100.00;95281.19;5067732;28;20277;-55
2023/10/11 00:04:49;;;;;;;1999.90;999.90;;;;;;;12.69;100.00;95284.78;5067200;28;20185;-57
2023/10/11 00:07:18;;;;;;;1999.90;999.90;;;;;;;12.67;100.00;95297.34;5066868;28;20276;-58
2023/10/11 00:09:44;;;;;;;1999.90;999.90;;;;;;;12.68;100.00;95298.91;5067137;28;20173;-55
2023/10/11 00:12:11;;;;;;;1999.90;999.90;;;;;;;12.67;100.00;95298.13;5066937;28;20166;-56
2023/10/11 00:14:39;;;;;;;1999.90;999.90;;;;;;;12.66;100.00;95301.28;5067502;28;20170;-58
2023/10/11 00:17:06;;;;;;;1999.90;999.90;;;;;;;12.64;100.00;95298.19;5067391;28;20170;-56
2023/10/11 00:19:33;;;;;;;1999.90;999.90;;;;;;;12.60;100.00;95298.25;5067392;28;20183;-57
2023/10/11 00:22:00;;;;;;;1999.90;999.90;;;;;;;12.61;100.00;95294.31;5066850;28;20174;-57
2023/10/11 00:24:28;;;;;;;1999.90;999.90;;;;;;;12.60;100.00;95291.97;5066786;28;20478;-57
2023/10/11 00:26:56;;;;;;;1999.90;999.90;;;;;;;12.59;100.00;95293.97;5066865;28;20170;-58
2023/10/11 00:29:22;;;;;;;1999.90;999.90;;;;;;;12.59;100.00;95284.97;5066733;28;20170;-58
2023/10/11 00:31:51;;;;;;;1999.90;999.90;;;;;;;12.62;100.00;95278.66;5066576;28;20181;-58
2023/10/11 00:34:17;;;;;;;1999.90;999.90;;;;;;;12.60;100.00;95270.06;5067076;28;20205;-58
2023/10/11 00:36:45;;;;;;;1999.90;999.90;;;;;;;12.54;100.00;95277.22;5065935;28;20174;-58
2023/10/11 00:39:17;;;;;;;1999.90;999.90;;;;;;;12.51;100.00;95273.38;5067236;28;20174;-58
2023/10/11 00:41:46;;;;;;;1999.90;999.90;;;;;;;12.53;100.00;95270.22;5066492;28;20177;-58
2023/10/11 00:44:16;;;;;;;1999.90;999.90;;;;;;;12.55;100.00;95273.28;5066509;28;20163;-58
2023/10/11 00:46:59;;;;;;;1999.90;999.90;;;;;;;12.53;100.00;95267.47;5066929;28;20201;-57
2023/10/11 00:49:36;;;;;;;1999.90;999.90;;;;;;;12.53;100.00;95275.69;5066851;28;20172;-58
2023/10/11 00:52:06;;;;;;;1999.90;999.90;;;;;;;12.53;100.00;95260.00;5066995;28;20190;-57
2023/10/11 00:54:37;;;;;;;1999.90;999.90;;;;;;;12.52;100.00;95253.00;5066228;28;20173;-58
2023/10/11 00:57:03;;;;;;;1999.90;999.90;;;;;;;12.50;100.00;95249.88;5066733;28;20200;-58
2023/10/11 00:59:30;;;;;;;1999.90;999.90;;;;;;;12.51;100.00;95245.97;5066261;28;20478;-58
2023/10/11 01:01:58;;;;;;;1999.90;999.90;;;;;;;12.49;100.00;95225.66;5066575;28;20174;-59
2023/10/11 01:04:25;;;;;;;1999.90;999.90;;;;;;;12.52;100.00;95227.56;5066539;28;20181;-59
2023/10/11 01:06:51;;;;;;;1999.90;999.90;;;;;;;12.50;100.00;95222.50;5065775;28;20213;-58
2023/10/11 01:09:26;;;;;;;1999.90;999.90;;;;;;;12.47;100.00;95214.34;5065880;28;20245;-58
2023/10/11 01:11:52;;;;;;;1999.90;999.90;;;;;;;12.42;100.00;95220.34;5065994;28;20162;-58
2023/10/11 01:14:17;;;;;;;1999.90;999.90;;;;;;;12.40;100.00;95217.22;5065726;28;20205;-58
2023/10/11 01:16:43;;;;;;;1999.90;999.90;;;;;;;12.36;100.00;95220.03;5066332;28;20237;-58
2023/10/11 01:19:12;;;;;;;1999.90;999.90;;;;;;;12.35;100.00;95229.44;5065856;28;20242;-59
2023/10/11 01:21:38;;;;;;;1999.90;999.90;;;;;;;12.36;100.00;95222.00;5066148;28;20288;-59
2023/10/11 01:24:08;;;;;;;1999.90;999.90;;;;;;;12.36;100.00;95222.78;5066204;28;20166;-60
2023/10/11 01:26:34;;;;;;;1999.90;999.90;;;;;;;12.32;100.00;95226.75;5066120;28;20179;-59
2023/10/11 01:28:59;;;;;;;1999.90;999.90;;;;;;;12.32;100.00;95226.75;5065550;28;20197;-58
2023/10/11 01:31:27;;;;;;;1999.90;999.90;;;;;;;12.29;100.00;95222.13;5065467;28;20253;-59
2023/10/11 01:33:52;;;;;;;1999.90;999.90;;;;;;;12.29;100.00;95211.94;5065446;28;20208;-58
2023/10/11 01:36:21;;;;;;;1999.90;999.90;;;;;;;12.32;100.00;95210.34;5065448;28;20174;-58
2023/10/11 01:38:47;;;;;;;1999.90;999.90;;;;;;;12.33;100.00;95200.91;5065360;28;20170;-58
2023/10/11 01:41:14;;;;;;;1999.90;999.90;;;;;;;12.31;100.00;95193.13;5065768;28;20179;-58
2023/10/11 01:43:40;;;;;;;1999.90;999.90;;;;;;;12.27;100.00;95183.41;5065331;28;20197;-58
2023/10/11 01:46:05;;;;;;;1999.90;999.90;;;;;;;12.23;100.00;95174.50;5065169;28;20173;-58
2023/10/11 01:48:31;;;;;;;1999.90;999.90;;;;;;;12.18;100.00;95170.31;5065021;28;20224;-58
2023/10/11 01:51:08;;;;;;;1999.90;999.90;;;;;;;12.16;100.00;95166.41;5065100;28;20177;-56
2023/10/11 01:53:35;;;;;;;1999.90;999.90;;;;;;;12.10;100.00;95165.38;5065598;28;20198;-58
2023/10/11 01:56:01;;;;;;;1999.90;999.90;;;;;;;12.09;100.00;95148.16;5064970;28;20180;-59
2023/10/11 01:58:27;;;;;;;1999.90;999.90;;;;;;;12.08;100.00;95143.09;5064862;28;20194;-58
2023/10/11 02:00:53;;;;;;;1999.90;999.90;;;;;;;12.08;100.00;95137.63;5065140;28;20197;-59
2023/10/11 02:03:18;;;;;;;1999.90;999.90;;;;;;;12.06;100.00;95120.88;5065576;28;20177;-59
2023/10/11 02:05:44;;;;;;;1999.90;999.90;;;;;;;12.01;100.00;95113.13;5064611;28;20286;-58
2023/10/11 02:08:13;;;;;;;1999.90;999.90;;;;;;;11.97;100.00;95117.88;5065363;28;20245;-58
2023/10/11 02:10:39;;;;;;;1999.90;999.90;;;;;;;11.95;100.00;95114.81;5065496;28;20170;-58
2023/10/11 02:13:06;;;;;;;1999.90;999.90;;;;;;;11.94;100.00;95110.50;5065160;28;20205;-60
2023/10/11 02:15:34;;;;;;;1999.90;999.90;;;;;;;11.91;100.00;95114.84;5065221;28;20266;-58
2023/10/11 02:17:59;;;;;;;1999.90;999.90;;;;;;;11.90;100.00;95104.31;5065135;28;20192;-59
2023/10/11 02:20:25;;;;;;;1999.90;999.90;;;;;;;11.89;100.00;95105.53;5065034;28;20173;-58
2023/10/11 02:22:52;;;;;;;1999.90;999.90;;;;;;;11.88;100.00;95093.81;5064557;28;20177;-58
2023/10/11 02:25:19;;;;;;;1999.90;999.90;;;;;;;11.88;100.00;95093.03;5064450;28;20525;-56
2023/10/11 02:27:49;;;;;;;1999.90;999.90;;;;;;;11.86;100.00;95085.25;5064496;28;20200;-57
2023/10/11 02:30:20;;;;;;;1999.90;999.90;;;;;;;11.87;100.00;95086.03;5064943;28;20208;-57
2023/10/11 02:32:46;;;;;;;1999.90;999.90;;;;;;;11.85;100.00;95072.00;5064375;28;20194;-56
2023/10/11 02:35:13;;;;;;;1999.90;999.90;;;;;;;11.85;100.00;95063.78;5064239;28;20176;-57
2023/10/11 02:37:39;;;;;;;1999.90;999.90;;;;;;;11.85;100.00;95072.00;5064315;28;20178;-59
2023/10/11 02:40:08;;;;;;;1999.90;999.90;;;;;;;11.81;100.00;95065.81;5064198;28;20169;-58
2023/10/11 02:42:36;;;;;;;1999.90;999.90;;;;;;;11.80;100.00;95073.25;5064243;28;20181;-57
2023/10/11 02:45:06;;;;;;;1999.90;999.90;;;;;;;11.79;100.00;95062.72;5064096;28;20181;-57
2023/10/11 02:47:32;;;;;;;1999.90;999.90;;;;;;;11.78;100.00;95072.91;5064199;28;20245;-56
2023/10/11 02:50:04;;;;;;;1999.90;999.90;;;;;;;11.74;100.00;95071.41;5064613;28;20181;-58
2023/10/11 02:52:35;;;;;;;1999.90;999.90;;;;;;;11.72;100.00;95076.50;5064732;28;20177;-57
2023/10/11 02:55:10;;;;;;;1999.90;999.90;;;;;;;11.70;100.00;95084.38;5064804;28;20180;-58
2023/10/11 02:57:37;;;;;;;1999.90;999.90;;;;;;;11.70;100.00;95087.13;5063675;28;20506;-58
2023/10/11 03:00:10;;;;;;;1999.90;999.90;;;;;;;11.69;100.00;95075.38;5063363;28;20182;-53
2023/10/11 03:02:39;;;;;;;1999.90;999.90;;;;;;;11.69;100.00;95082.84;5064747;28;20177;-53
2023/10/11 03:05:06;;;;;;;1999.90;999.90;;;;;;;11.64;100.00;95088.78;5064377;28;20236;-53
2023/10/11 03:07:33;;;;;;;1999.90;999.90;;;;;;;11.59;100.00;95087.28;5064787;28;20185;-51
2023/10/11 03:09:58;;;;;;;1999.90;999.90;;;;;;;11.57;100.00;95099.81;5064318;28;20260;-48
2023/10/11 03:12:42;;;;;;;1999.90;999.90;;;;;;;11.56;100.00;95104.50;5063664;28;20189;-51
2023/10/11 03:15:09;;;;;;;1999.90;999.90;;;;;;;11.53;100.00;95099.09;5064199;28;20166;-49
2023/10/11 03:17:43;;;;;;;1999.90;999.90;;;;;;;11.51;100.00;95096.00;5064536;28;20211;-50
2023/10/11 03:20:35;;;;;;;1999.90;999.90;;;;;;;11.51;100.00;95104.97;5064102;28;20233;-48
2023/10/11 03:22:59;;;;;;;1999.90;999.90;;;;;;;11.50;100.00;95097.97;5064509;28;20181;-50
2023/10/11 03:25:27;;;;;;;1999.90;999.90;;;;;;;11.50;100.00;95094.44;5064241;28;20166;-52
2023/10/11 03:27:53;;;;;;;1999.90;999.90;;;;;;;11.47;100.00;95093.31;5063671;28;20180;-48
2023/10/11 03:30:23;;;;;;;1999.90;999.90;;;;;;;11.46;100.00;95093.72;5063831;28;20174;-51
2023/10/11 03:32:49;;;;;;;1999.90;999.90;;;;;;;11.44;100.00;95096.13;5064121;28;20202;-49
2023/10/11 03:35:18;;;;;;;1999.90;999.90;;;;;;;11.43;100.00;95097.28;5063535;28;20181;-51
2023/10/11 03:37:59;;;;;;;1999.90;999.90;;;;;;;11.39;100.00;95102.06;5063510;28;20184;-50
2023/10/11 03:40:34;;;;;;;1999.90;999.90;;;;;;;11.38;100.00;95103.25;5064036;28;20232;-48
2023/10/11 03:43:11;;;;;;;1999.90;999.90;;;;;;;11.34;100.00;95105.28;5064208;28;20458;-54
2023/10/11 03:45:39;;;;;;;1999.90;999.90;;;;;;;11.33;100.00;95093.53;5064133;28;20173;-50
2023/10/11 03:48:09;;;;;;;1999.90;999.90;;;;;;;11.35;100.00;95088.44;5063514;28;20170;-53
2023/10/11 03:50:37;;;;;;;1999.90;999.90;;;;;;;11.35;100.00;95084.94;5063985;28;20170;-52
2023/10/11 03:53:10;;;;;;;1999.90;999.90;;;;;;;11.36;100.00;95083.75;5063391;28;20193;-51
2023/10/11 03:55:46;;;;;;;1999.90;999.90;;;;;;;11.38;100.00;95081.38;5063816;28;20170;-50
2023/10/11 03:58:22;;;;;;;1999.90;999.90;;;;;;;11.40;100.00;95073.53;5063831;28;20200;-48
2023/10/11 04:00:48;;;;;;;1999.90;999.90;;;;;;;11.44;100.00;95063.31;5063598;28;20178;-50
2023/10/11 04:03:17;;;;;;;1999.90;999.90;;;;;;;11.45;100.00;95064.84;5063364;28;20197;-51
2023/10/11 04:05:45;;;;;;;1999.90;999.90;;;;;;;11.46;100.00;95067.19;5063467;28;20225;-49
2023/10/11 04:08:12;;;;;;;1999.90;999.90;;;;;;;11.49;100.00;95076.50;5063944;28;20237;-48
2023/10/11 04:10:46;;;;;;;1999.90;999.90;;;;;;;11.50;100.00;95072.56;5065044;28;20170;-47
2023/10/11 04:13:14;;;;;;;1999.90;999.90;;;;;;;11.49;100.00;95068.31;5067738;28;20200;-48
2023/10/11 04:15:44;;;;;;;1999.90;999.90;;;;;;;11.50;100.00;95061.63;5067546;28;20178;-48
2023/10/11 04:18:43;;;;;;;1999.90;999.90;;;;;;;11.50;100.00;95072.56;5066948;28;20194;-50
2023/10/11 04:23:35;;;;;;;1999.90;999.90;;;;;;;11.54;100.00;95071.31;5067932;28;20170;-53
2023/10/11 04:26:07;;;;;;;1999.90;999.90;;;;;;;11.53;100.00;95071.75;5067644;28;20169;-51
2023/10/11 04:28:32;;;;;;;1999.90;999.90;;;;;;;11.51;100.00;95085.06;5067623;28;20173;-48
2023/10/11 04:31:28;;;;;;;1999.90;999.90;;;;;;;11.53;100.00;95078.00;5066950;28;20180;-50
2023/10/11 04:33:50;;;;;;;1999.90;999.90;;;;;;;11.55;100.00;95085.78;5067426;28;20380;-52
2023/10/11 04:36:20;;;;;;;1999.90;999.90;;;;;;;11.57;100.00;95086.91;5066858;28;20170;-51
2023/10/11 04:38:49;;;;;;;1999.90;999.90;;;;;;;11.57;100.00;95089.66;5066627;28;20241;-51
2023/10/11 04:41:19;;;;;;;1999.90;999.90;;;;;;;11.57;100.00;95102.53;5067329;28;20173;-50
2023/10/11 04:43:50;;;;;;;1999.90;999.90;;;;;;;11.60;100.00;95112.66;5066902;28;20172;-50
2023/10/11 04:46:18;;;;;;;1999.90;999.90;;;;;;;11.60;100.00;95116.16;5066978;28;20166;-54
2023/10/11 04:48:45;;;;;;;1999.90;999.90;;;;;;;11.62;100.00;95118.53;5066854;28;20174;-49
2023/10/11 04:59:06;;;;;;;1999.90;999.90;;;;;;;11.65;100.00;95129.38;5067085;28;20168;-52
2023/10/11 05:04:13;;;;;;;1999.90;999.90;;;;;;;11.64;100.00;95127.06;5067098;28;20207;-50
2023/10/11 05:06:41;;;;;;;1999.90;999.90;;;;;;;11.62;100.00;95134.94;5065793;28;20217;-54
2023/10/11 05:09:29;;;;;;;1999.90;999.90;;;;;;;11.62;100.00;95146.63;5066123;28;20173;-49
2023/10/11 05:19:46;;;;;;;1999.90;999.90;;;;;;;11.62;100.00;95154.06;5066718;28;20265;-51
2023/10/11 05:27:38;;;;;;;1999.90;999.90;;;;;;;11.62;100.00;95163.03;5066664;28;20158;-52
2023/10/11 05:32:54;;;;;;;1999.90;999.90;;;;;;;11.63;100.00;95177.50;5066496;28;20185;-54
2023/10/11 05:51:31;;;;;;;1999.90;999.90;;;;;;;12.49;100.00;95253.03;5066371;28;20225;-49
2023/10/11 05:54:02;;;;;;;1999.90;999.90;;;;;;;12.70;100.00;95291.03;5065014;28;20201;-50
2023/10/11 05:56:33;;;;;;;1999.90;999.90;;;;;;;13.11;100.00;95321.59;5065601;28;20163;-48
2023/10/11 05:59:03;;;;;;;1999.90;999.90;;;;;;;13.76;100.00;95389.28;5065117;28;20208;-53
2023/10/11 06:01:30;;;;;;;1999.90;999.90;;;;;;;14.47;100.00;95462.75;5064774;28;20193;-54
2023/10/11 06:03:56;;;;;;;1999.90;999.90;;;;;;;14.89;100.00;95536.78;5065237;28;20203;-51
2023/10/11 06:09:08;;;;;;;1999.90;999.90;;;;;;;16.24;100.00;95659.78;5065669;28;20157;-54
2023/10/11 06:11:36;;;;;;;1999.90;999.90;;;;;;;16.82;100.00;95696.50;5064705;28;20253;-51
2023/10/11 06:14:07;;;;;;;1999.90;999.90;;;;;;;17.84;100.00;95705.31;5065057;28;20208;-51
2023/10/11 06:16:43;;;;;;;1999.90;999.90;;;;;;;18.52;100.00;95719.31;5065217;28;20181;-50
2023/10/11 06:19:17;;;;;;;1999.90;999.90;;;;;;;19.01;100.00;95731.41;5065126;28;20180;-54
2023/10/11 06:21:57;;;;;;;1999.90;999.90;;;;;;;19.66;100.00;95732.22;5064841;28;20181;-54
2023/10/11 06:24:24;;;;;;;1999.90;999.90;;;;;;;19.61;100.00;95741.13;5064930;28;20173;-53
2023/10/11 06:29:24;;;;;;;1999.90;999.90;;;;;;;19.68;100.00;95740.88;5065357;28;20181;-48
2023/10/11 06:31:52;;;;;;;1999.90;999.90;;;;;;;20.22;100.00;95746.69;5064623;28;20169;-52
2023/10/11 06:34:24;;;;;;;1999.90;999.90;;;;;;;19.52;100.00;95748.63;5063326;28;20214;-53
2023/10/11 06:36:50;;;;;;;1999.90;999.90;;;;;;;19.47;100.00;95752.72;5064190;28;20166;-50
2023/10/11 06:40:07;;;;;;;1999.90;999.90;;;;;;;20.12;100.00;95747.88;5064439;28;20189;-51
2023/10/11 06:45:05;;;;;;;1999.90;999.90;;;;;;;21.98;100.00;95760.09;5064882;28;20165;-53
2023/10/11 06:47:33;;;;;;;1999.90;999.90;;;;;;;22.29;100.00;95757.81;5063996;28;20174;-49
2023/10/11 06:49:59;;;;;;;1999.90;999.90;;;;;;;21.87;100.00;95757.03;5064565;28;20173;-50
2023/10/11 06:52:33;;;;;;;1999.90;999.90;;;;;;;21.14;100.00;95766.66;5064304;28;20232;-51
2023/10/11 06:55:13;;;;;;;1999.90;999.90;;;;;;;20.77;100.00;95753.94;5064515;28;20174;-50
2023/10/11 06:57:40;;;;;;;1999.90;999.90;;;;;;;22.44;100.00;95755.13;5064017;28;20228;-53
2023/10/11 07:00:29;;;;;;;1999.90;999.90;;;;;;;23.78;100.00;95760.22;5063881;28;20241;-52
2023/10/11 07:03:21;;;;;;;1999.90;999.90;;;;;;;24.91;100.00;95766.66;5063973;28;20171;-51
2023/10/11 07:05:56;;;;;;;1999.90;999.90;;;;;;;24.40;100.00;95766.38;5064194;28;20222;-51
2023/10/11 07:08:31;;;;;;;1999.90;999.90;;;;;;;25.42;100.00;95760.47;5064281;28;20162;-51
2023/10/11 07:16:31;;;;;;;1999.90;999.90;;;;;;;24.91;100.00;95767.41;5064632;28;20161;-49
2023/10/11 07:18:57;;;;;;;1999.90;999.90;;;;;;;26.43;100.00;95765.28;5064257;28;20165;-48
2023/10/11 07:21:48;;;;;;;1999.90;999.90;;;;;;;27.57;97.49;95771.34;5063591;28;20231;-50
2023/10/11 07:24:19;;;;;;;1999.90;999.90;;;;;;;26.05;100.00;95774.13;5064309;28;20231;-51
2023/10/11 07:29:13;;;;;;;1999.90;999.90;;;;;;;24.48;100.00;95761.94;5064694;28;20170;-49
2023/10/11 07:31:48;;;;;;;1999.90;999.90;;;;;;;23.87;100.00;95763.69;5063513;28;20256;-51
2023/10/11 07:34:17;;;;;;;1999.90;999.90;;;;;;;24.55;100.00;95761.53;5064016;28;20193;-49
2023/10/11 07:36:43;;;;;;;1999.90;999.90;;;;;;;24.86;100.00;95776.50;5063600;28;20169;-53
2023/10/11 07:39:19;;;;;;;1999.90;999.90;;;;;;;26.92;100.00;95767.69;5063554;28;20162;-49
2023/10/11 07:41:48;;;;;;;1999.90;999.90;;;;;;;27.85;90.17;95764.56;5064009;28;20260;-53
2023/10/11 07:44:14;;;;;;;1999.90;999.90;;;;;;;28.59;83.78;95775.38;5063486;28;20232;-52
2023/10/11 07:46:40;;;;;;;1999.90;999.90;;;;;;;29.05;76.35;95773.53;5067485;28;20173;-51
2023/10/11 07:49:06;;;;;;;1999.90;999.90;;;;;;;29.28;74.99;95774.25;5067952;28;20170;-50
2023/10/11 07:51:39;;;;;;;1999.90;999.90;;;;;;;29.83;70.33;95779.66;5067473;28;20170;-52
2023/10/11 07:54:11;;;;;;;1999.90;999.90;;;;;;;29.80;69.61;95773.03;5067186;28;20202;-54
2023/10/11 07:56:37;;;;;;;1999.90;999.90;;;;;;;30.32;66.93;95773.72;5067945;28;20232;-52
2023/10/11 07:59:09;;;;;;;1999.90;999.90;;;;;;;30.21;67.65;95770.22;5067463;28;20190;-49
2023/10/11 08:01:45;;;;;;;1999.90;999.90;;;;;;;29.75;67.36;95770.25;5067898;28;20166;-48
2023/10/11 08:04:18;;;;;;;1999.90;999.90;;;;;;;30.33;66.18;95771.66;5067797;28;20165;-52
2023/10/11 08:06:44;;;;;;;1999.90;999.90;;;;;;;30.68;63.19;95769.59;5067276;28;20232;-49
2023/10/11 08:09:18;;;;;;;1999.90;999.90;;;;;;;31.13;61.83;95775.56;5067045;28;20177;-50
2023/10/11 08:11:56;;;;;;;1999.90;999.90;;;;;;;32.31;57.70;95766.69;5067698;28;20166;-49
2023/10/11 08:14:22;;;;;;;1999.90;999.90;;;;;;;32.31;57.70;95766.69;5067598;28;20205;-51
2023/10/11 08:16:52;;;;;;;1999.90;999.90;;;;;;;31.73;54.11;95765.66;5066655;28;20236;-51
2023/10/11 08:19:18;;;;;;;1999.90;999.90;;;;;;;32.44;52.44;95766.72;5066692;28;20170;-51
2023/10/11 08:21:57;;;;;;;1999.90;999.90;;;;;;;33.29;50.20;95769.09;5066823;28;20198;-48
2023/10/11 08:24:25;;;;;;;1999.90;999.90;;;;;;;33.71;48.24;95767.25;5067350;28;20182;-48
2023/10/11 08:26:57;;;;;;;1999.90;999.90;;;;;;;32.92;49.70;95763.63;5067191;28;20174;-50
2023/10/11 08:29:29;;;;;;;1999.90;999.90;;;;;;;32.48;51.99;95761.50;5067274;28;20154;-52
2023/10/11 08:31:59;;;;;;;1999.90;999.90;;;;;;;31.76;53.88;95758.94;5066677;28;20170;-54
2023/10/11 08:34:25;;;;;;;1999.90;999.90;;;;;;;31.24;53.85;95758.50;5066540;28;20225;-50
2023/10/11 08:36:54;;;;;;;1999.90;999.90;;;;;;;31.30;54.42;95762.09;5067081;28;20166;-51
2023/10/11 08:39:21;;;;;;;1999.90;999.90;;;;;;;32.17;53.28;95759.41;5066845;28;20200;-52
2023/10/11 08:41:47;;;;;;;1999.90;999.90;;;;;;;32.64;49.84;95766.16;5067006;28;20170;-51
2023/10/11 08:44:18;;;;;;;1999.90;999.90;;;;;;;32.16;49.42;95752.22;5066807;28;20162;-51
2023/10/11 08:46:51;;;;;;;1999.90;999.90;;;;;;;31.65;53.15;95761.16;5066858;28;20170;-59
2023/10/11 08:49:17;;;;;;;1999.90;999.90;;;;;;;32.05;50.72;95755.22;5066790;28;20252;-58
2023/10/11 08:51:43;;;;;;;1999.90;999.90;;;;;;;32.66;47.85;95754.28;5067031;28;20238;-59
2023/10/11 08:54:11;;;;;;;1999.90;999.90;;;;;;;32.35;48.91;95741.69;5066087;28;20197;-57
2023/10/11 08:56:43;;;;;;;1999.90;999.90;;;;;;;32.41;49.04;95748.00;5065758;28;20177;-56
2023/10/11 08:59:14;;;;;;;1999.90;999.90;;;;;;;32.58;47.87;95742.81;5066584;28;20170;-57
2023/10/11 09:01:45;;;;;;;1999.90;999.90;;;;;;;32.96;45.46;95751.97;5066592;28;20249;-57
2023/10/11 09:04:15;;;;;;;1999.90;999.90;;;;;;;32.25;47.00;95732.03;5066527;28;20201;-50
2023/10/11 09:06:45;;;;;;;1999.90;999.90;;;;;;;32.76;47.03;95733.50;5066388;28;20240;-48
2023/10/11 09:09:34;;;;;;;1999.90;999.90;;;;;;;32.76;47.12;95722.19;5066433;28;20193;-49
2023/10/11 09:11:59;;;;;;;1999.90;999.90;;;;;;;32.22;47.33;95727.44;5066687;28;20175;-50
2023/10/11 09:14:28;;;;;;;1999.90;999.90;;;;;;;32.97;45.59;95723.13;5065840;28;20198;-51
2023/10/11 09:16:57;;;;;;;1999.90;999.90;;;;;;;32.28;45.52;95725.31;5065851;28;20166;-50
2023/10/11 09:19:26;;;;;;;1999.90;999.90;;;;;;;32.84;46.13;95723.09;5065604;28;20165;-52
2023/10/11 09:22:03;;;;;;;1999.90;999.90;;;;;;;32.76;45.72;95733.50;5065793;28;20247;-52
2023/10/11 09:24:29;;;;;;;1999.90;999.90;;;;;;;33.00;45.15;95730.50;5065760;28;20212;-50
2023/10/11 09:29:52;;;;;;;1999.90;999.90;;;;;;;32.33;44.28;95721.63;5066714;28;20158;-52
2023/10/11 09:32:19;;;;;;;1999.90;999.90;;;;;;;33.12;43.01;95723.34;5066037;28;20173;-57
2023/10/11 09:34:51;;;;;;;1999.90;999.90;;;;;;;32.11;44.60;95710.66;5065836;28;20193;-56
2023/10/11 09:37:18;;;;;;;1999.90;999.90;;;;;;;32.89;44.31;95727.88;5065091;28;20174;-54
2023/10/11 09:39:43;;;;;;;1999.90;999.90;;;;;;;32.89;43.59;95722.22;5065409;28;20202;-57
2023/10/11 09:42:14;;;;;;;1999.90;999.90;;;;;;;33.49;42.83;95733.69;5064911;28;20249;-56
2023/10/11 09:44:43;;;;;;;1999.90;999.90;;;;;;;33.78;41.95;95730.50;5065371;28;20174;-58
2023/10/11 09:47:16;;;;;;;1999.90;999.90;;;;;;;34.89;40.19;95742.13;5065718;28;20212;-58
2023/10/11 09:49:42;;;;;;;1999.90;999.90;;;;;;;33.48;40.82;95738.63;5065788;28;20173;-57
2023/10/11 09:52:15;;;;;;;1999.90;999.90;;;;;;;31.98;46.25;95738.88;5065079;28;20174;-59
2023/10/11 09:54:41;;;;;;;1999.90;999.90;;;;;;;31.93;46.40;95733.31;5065474;28;20224;-52
2023/10/11 09:57:20;;;;;;;1999.90;999.90;;;;;;;33.83;42.69;95740.19;5064881;28;20213;-55
2023/10/11 09:59:59;;;;;;;1999.90;999.90;;;;;;;35.36;40.24;95748.34;5065651;28;20161;-56
2023/10/11 10:02:39;;;;;;;1999.90;999.90;;;;;;;35.96;38.41;95751.53;5065543;28;20245;-56
2023/10/11 10:05:05;;;;;;;1999.90;999.90;;;;;;;36.57;36.25;95750.41;5065501;28;20177;-55
2023/10/11 10:07:44;;;;;;;1999.90;999.90;;;;;;;36.50;37.07;95736.91;5064259;28;20288;-57
2023/10/11 10:10:26;;;;;;;1999.90;999.90;;;;;;;34.76;38.15;95734.41;5064853;28;20454;-60
2023/10/11 10:12:55;;;;;;;1999.90;999.90;;;;;;;33.65;40.81;95724.84;5065012;28;20240;-59
2023/10/11 10:15:23;;;;;;;1999.90;999.90;;;;;;;33.23;42.42;95728.03;5064680;28;20238;-48
2023/10/11 10:17:57;;;;;;;1999.90;999.90;;;;;;;32.71;44.32;95717.41;5064753;28;20180;-56
2023/10/11 10:20:32;;;;;;;1999.90;999.90;;;;;;;32.23;46.35;95716.91;5065364;28;20180;-59
2023/10/11 10:23:16;;;;;;;1999.90;999.90;;;;;;;34.45;42.66;95726.19;5064693;28;20178;-50
2023/10/11 10:25:48;;;;;;;1999.90;999.90;;;;;;;35.68;38.92;95725.94;5064421;28;20216;-56
2023/10/11 10:28:32;;;;;;;1999.90;999.90;;;;;;;36.50;36.92;95719.81;5064964;28;20162;-52
2023/10/11 10:31:04;;;;;;;1999.90;999.90;;;;;;;36.17;36.90;95720.88;5064986;28;20169;-51
2023/10/11 10:33:35;;;;;;;1999.90;999.90;;;;;;;36.05;35.89;95726.13;5064291;28;20198;-59
2023/10/11 10:36:20;;;;;;;1999.90;999.90;;;;;;;35.88;36.59;95722.28;5064845;28;20235;-54
2023/10/11 10:38:58;;;;;;;1999.90;999.90;;;;;;;35.38;36.21;95723.72;5064309;28;20169;-56
2023/10/11 10:41:26;;;;;;;1999.90;999.90;;;;;;;35.51;36.70;95717.91;5064735;28;20188;-53
2023/10/11 10:44:12;;;;;;;1999.90;999.90;;;;;;;35.81;35.44;95717.31;5064945;28;20166;-54
2023/10/11 10:46:51;;;;;;;1999.90;999.90;;;;;;;35.20;36.28;95709.75;5064646;28;20165;-53
2023/10/11 10:49:18;;;;;;;1999.90;999.90;;;;;;;33.79;38.19;95700.06;5063856;28;20211;-51
2023/10/11 10:51:47;;;;;;;1999.90;999.90;;;;;;;34.45;37.41;95703.47;5064285;28;20173;-51
2023/10/11 10:54:13;;;;;;;1999.90;999.90;;;;;;;33.74;38.58;95693.22;5064001;28;20204;-50
2023/10/11 10:56:46;;;;;;;1999.90;999.90;;;;;;;33.67;39.07;95702.41;5064507;28;20173;-53
2023/10/11 10:59:14;;;;;;;1999.90;999.90;;;;;;;32.99;40.79;95686.50;5063736;28;20166;-55
2023/10/11 11:01:46;;;;;;;1999.90;999.90;;;;;;;30.89;46.02;95682.44;5063968;28;20170;-51
2023/10/11 11:04:16;;;;;;;1999.90;999.90;;;;;;;29.01;55.63;95688.63;5064248;28;20168;-51
2023/10/11 11:06:45;;;;;;;1999.90;999.90;;;;;;;28.15;61.80;95681.31;5063675;28;20221;-47
2023/10/11 11:09:15;;;;;;;1999.90;999.90;;;;;;;28.02;65.59;95667.03;5064291;28;20170;-50
2023/10/11 11:11:41;;;;;;;1999.90;999.90;;;;;;;27.72;66.63;95668.75;5063868;28;20227;-51
2023/10/11 11:14:15;;;;;;;1999.90;999.90;;;;;;;27.23;72.16;95652.59;5064471;28;20220;-48
2023/10/11 11:16:44;;;;;;;1999.90;999.90;;;;;;;27.03;73.80;95661.19;5063977;28;20174;-52
2023/10/11 11:19:16;;;;;;;1999.90;999.90;;;;;;;26.95;75.78;95654.50;5063520;28;20196;-52
2023/10/11 11:21:46;;;;;;;1999.90;999.90;;;;;;;26.54;78.05;95647.66;5063513;28;20181;-50
2023/10/11 11:24:15;;;;;;;1999.90;999.90;;;;;;;26.26;84.10;95646.72;5064174;28;20173;-50
2023/10/11 11:26:40;;;;;;;1999.90;999.90;;;;;;;26.16;84.84;95650.22;5063675;28;20170;-50
2023/10/11 11:29:10;;;;;;;1999.90;999.90;;;;;;;25.98;86.26;95647.78;5063532;28;20166;-51
2023/10/11 11:31:52;;;;;;;1999.90;999.90;;;;;;;26.10;86.10;95641.78;5063570;28;20170;-48
2023/10/11 11:34:27;;;;;;;1999.90;999.90;;;;;;;26.04;86.68;95640.97;5063622;28;20189;-51
2023/10/11 11:37:00;;;;;;;1999.90;999.90;;;;;;;26.01;88.36;95638.41;5064055;28;20168;-51
2023/10/11 11:39:42;;;;;;;1999.90;999.90;;;;;;;26.14;87.13;95642.31;5064008;28;20166;-54
2023/10/11 11:42:19;;;;;;;1999.90;999.90;;;;;;;25.98;85.41;95623.38;5063933;28;20255;-52
2023/10/11 11:44:46;;;;;;;1999.90;999.90;;;;;;;25.83;85.50;95627.53;5064167;28;20162;-49
2023/10/11 11:47:13;;;;;;;1999.90;999.90;;;;;;;25.92;85.18;95618.97;5063841;28;20181;-47
2023/10/11 11:49:38;;;;;;;1999.90;999.90;;;;;;;26.02;84.91;95623.13;5063273;28;20162;-50
2023/10/11 11:52:04;;;;;;;1999.90;999.90;;;;;;;26.03;84.52;95625.44;5063232;28;20166;-48
2023/10/11 11:54:29;;;;;;;1999.90;999.90;;;;;;;25.88;86.38;95624.78;5063246;28;20197;-48
2023/10/11 11:56:56;;;;;;;1999.90;999.90;;;;;;;25.99;85.44;95608.09;5063279;28;20281;-49
2023/10/11 11:59:23;;;;;;;1999.90;999.90;;;;;;;26.07;83.87;95602.81;5063298;28;20241;-48
2023/10/11 12:01:52;;;;;;;1999.90;999.90;;;;;;;25.96;83.72;95606.28;5063542;28;20170;-47
2023/10/11 12:04:24;;;;;;;1999.90;999.90;;;;;;;26.09;82.13;95606.66;5063184;28;20172;-48
2023/10/11 12:06:50;;;;;;;1999.90;999.90;;;;;;;26.04;82.49;95612.97;5063678;28;20221;-48
2023/10/11 12:09:21;;;;;;;1999.90;999.90;;;;;;;26.06;84.03;95604.06;5063266;28;20219;-51